Weersoverzicht van METAR-stations binnen 150 km

EHRD - Rotterdam Airport
Afstand tot weerstation: ZO 28 km
Update: 07-07-2022 18:25
Zwaar bewolkt
Zwaar bewolkt
 Wind van N
Wind: N 20 km/h
Temperatuur: 17°C
Dauwpunt: 10°C
Luchtvochtigheid: 64%
Luchtdruk: 1028 hPa
Bewolking: Zwaar bewolkt
Zicht: 10 km
Details Bewolking: Enkele wolken 914 m
Zwaar bewolkt 1128 m
2022/07/07 16:25 EHRD 071625Z AUTO 35011KT 300V040 9999 FEW030 OVC037 17/10 Q1028 NOSIG
EHSC - Goeree Le Sea (Platform ter hoogte van Zeeland)
Afstand tot weerstation: WZW 36 km
Update: 07-07-2022 18:25

 Wind van NNW
Wind: NNW 35 km/h
Temperatuur: 15°C
Dauwpunt: 11°C
Luchtvochtigheid: 77%
Luchtdruk: 1029 hPa
Zicht: 10 km
2022/07/07 16:25 EHSC 071625Z AUTO 34019KT 9999 ///////// 15/11 Q1029 W18/H22
 
EHAM - A'dam Schiphol
Afstand tot weerstation: ONO 51 km
Update: 07-07-2022 18:25
Overwegend bewolkt
Overwegend bewolkt
 Wind van NW
Wind: NW 30 km/h
Temperatuur: 17°C
Dauwpunt: 10°C
Luchtvochtigheid: 64%
Luchtdruk: 1028 hPa
Bewolking: Overwegend bewolkt
Zicht: 10 km
Details Bewolking: Enkele wolken 853 m
Overwegend bewolkt 1219 m
2022/07/07 16:25 EHAM 071625Z 32016KT 290V360 9999 FEW028 BKN040 17/10 Q1028 NOSIG
EHSA - Euro Platform (Ter hoogte van Zeeland)
Afstand tot weerstation: W 58 km
Update: 07-07-2022 18:25

 Wind van NW
Wind: NW 35 km/h
Temperatuur: 15°C
Dauwpunt: 11°C
Luchtvochtigheid: 77%
Luchtdruk: 1029 hPa
Zicht: 10 km
2022/07/07 16:25 EHSA 071625Z AUTO 32019KT 9999 ///////// 15/11 Q1029 W18/H22
 
EHPG - P11-B Sea (Platform ter hoogte van Zuid Holland)
Afstand tot weerstation: NW 60 km
Update: 07-07-2022 18:25
Zwaar bewolkt
Zwaar bewolkt
 Wind van NNW
Wind: NNW 26 km/h
Temperatuur: 15°C
Dauwpunt: 10°C
Luchtvochtigheid: 72%
Luchtdruk: 1029 hPa
Bewolking: Zwaar bewolkt
Zicht: 10 km
Details Bewolking: Enkele wolken 671 m
Overwegend bewolkt 792 m
Zwaar bewolkt 975 m
2022/07/07 16:25 EHPG 071625Z AUTO 33014KT 270V010 9999 FEW022 BKN026 OVC032 15/10 Q1029
EHWO - Vliegveld Woensdrecht
Afstand tot weerstation: ZZO 65 km
Update: 07-07-2022 18:25
Zwaar bewolkt
Zwaar bewolkt
 Wind van NNW
Wind: NNW 19 km/h
Temperatuur: 17°C
Dauwpunt: 9°C
Luchtvochtigheid: 59%
Luchtdruk: 1028 hPa
Bewolking: Zwaar bewolkt
Zicht: 10 km
Details Bewolking: Gedeeltelijk bewolkt 1006 m
Zwaar bewolkt 1158 m
2022/07/07 16:25 EHWO 071625Z AUTO 33010KT 260V030 9999 SCT033 OVC038 17/09 Q1028 BLU
 
EHGR - Vliegveld Gilze-Rijen
Afstand tot weerstation: ZO 79 km
Update: 07-07-2022 18:25
Overwegend bewolkt
Overwegend bewolkt
 Wind van NW
Wind: NW 22 km/h
Temperatuur: 18°C
Dauwpunt: 11°C
Luchtvochtigheid: 64%
Luchtdruk: 1028 hPa
Bewolking: Overwegend bewolkt
Zicht: 10 km
Details Bewolking: Enkele wolken 914 m
Overwegend bewolkt 1280 m
Overwegend bewolkt 1433 m
2022/07/07 16:25 EHGR 071625Z AUTO 32012KT 270V020 9999 FEW030 BKN042 BKN047 18/11 Q1028 BLU
EHQE - Hoorn-A Sea (Platform ter hoogte van Noord Holland)
Afstand tot weerstation: N 103 km
Update: 07-07-2022 18:25
Zwaar bewolkt
Zwaar bewolkt
 Wind van NNW
Wind: NNW 35 km/h
Temperatuur: 15°C
Dauwpunt: 10°C
Luchtvochtigheid: 72%
Luchtdruk: 1028 hPa
Bewolking: Zwaar bewolkt
Zicht: 10 km
Details Bewolking: Enkele wolken 640 m
Overwegend bewolkt 792 m
Zwaar bewolkt 914 m
2022/07/07 16:25 EHQE 071625Z AUTO 34019KT 9999 FEW021 BKN026 OVC030 15/10 Q1028
 
EHKD - Marinebasis De Kooy (Den Helder)
Afstand tot weerstation: NNO 114 km
Update: 07-07-2022 18:25
Zwaar bewolkt
Zwaar bewolkt
 Wind van NNW
Wind: NNW 20 km/h
Temperatuur: 16°C
Dauwpunt: 9°C
Luchtvochtigheid: 63%
Luchtdruk: 1027 hPa
Bewolking: Zwaar bewolkt
Zicht: 10 km
Details Bewolking: Enkele wolken 884 m
Zwaar bewolkt 1006 m
2022/07/07 16:25 EHKD 071625Z AUTO 33011KT 280V030 9999 FEW029 OVC033 16/09 Q1027 BLU NOSIG
EHEH - Vliegveld Eindhoven
Afstand tot weerstation: OZO 115 km
Update: 07-07-2022 18:25
Zwaar bewolkt
Zwaar bewolkt
 Wind van NNW
Wind: NNW 22 km/h
Temperatuur: 19°C
Dauwpunt: 10°C
Luchtvochtigheid: 56%
Luchtdruk: 1027 hPa
Bewolking: Zwaar bewolkt
Zicht: 10 km
Details Bewolking: Overwegend bewolkt 1189 m
Zwaar bewolkt 1311 m
2022/07/07 16:25 EHEH 071625Z AUTO 33012KT 250V030 9999 BKN039 OVC043 19/10 Q1027 BLU TEMPO 34013G23KT
 
EHVK - Vliegveld Volkel
Afstand tot weerstation: OZO 124 km
Update: 07-07-2022 18:25
Overwegend bewolkt
Overwegend bewolkt
 Wind van NNW
Wind: NNW 15 km/h
Temperatuur: 18°C
Dauwpunt: 10°C
Luchtvochtigheid: 60%
Luchtdruk: 1026 hPa
Bewolking: Overwegend bewolkt
Zicht: 10 km
Details Bewolking: Enkele wolken 1006 m
Gedeeltelijk bewolkt 1128 m
Overwegend bewolkt 1280 m
2022/07/07 16:25 EHVK 071625Z AUTO 34008KT 290V020 9999 FEW033 SCT037 BKN042 18/10 Q1026 BLU
EHDL - Vliegveld Deelen
Afstand tot weerstation: O 128 km
Update: 07-07-2022 18:25
Zwaar bewolkt
Zwaar bewolkt
 Wind van NW
Wind: NW 24 km/h
Temperatuur: 18°C
Dauwpunt: 9°C
Luchtvochtigheid: 56%
Luchtdruk: 1026 hPa
Bewolking: Zwaar bewolkt
Zicht: 10 km
Details Bewolking: Gedeeltelijk bewolkt 1006 m
Overwegend bewolkt 1158 m
Zwaar bewolkt 1280 m
2022/07/07 16:25 EHDL 071625Z AUTO 32013KT 270V030 9999 SCT033 BKN038 OVC042 18/09 Q1026 BLU